createdAt,value
2024-05-09T00:00:39.990Z,9.80
2024-05-09T00:03:09.000Z,9.89
2024-05-09T00:05:38.728Z,9.74
2024-05-09T00:08:06.440Z,9.70
2024-05-09T00:10:37.550Z,9.71
2024-05-09T00:13:07.656Z,9.79
2024-05-09T00:15:36.969Z,9.57
2024-05-09T00:18:05.299Z,9.65
2024-05-09T00:20:38.292Z,9.60
2024-05-09T00:23:09.436Z,9.61
2024-05-09T00:25:37.644Z,9.74
2024-05-09T00:28:05.419Z,9.67
2024-05-09T00:30:35.415Z,9.72
2024-05-09T00:33:05.889Z,9.40
2024-05-09T00:35:33.694Z,9.41
2024-05-09T00:38:01.332Z,9.39
2024-05-09T00:40:39.089Z,9.50
2024-05-09T00:43:08.557Z,9.51
2024-05-09T00:45:36.655Z,9.49
2024-05-09T00:48:07.094Z,9.47
2024-05-09T00:50:37.508Z,9.50
2024-05-09T00:53:10.884Z,9.44
2024-05-09T00:55:37.823Z,9.43
2024-05-09T00:58:05.870Z,9.33
2024-05-09T01:00:38.987Z,9.41
2024-05-09T01:03:11.668Z,9.42
2024-05-09T01:05:41.134Z,9.46
2024-05-09T01:08:09.723Z,9.41
2024-05-09T01:10:37.355Z,9.20
2024-05-09T01:13:05.412Z,9.19
2024-05-09T01:15:33.854Z,9.06
2024-05-09T01:18:09.580Z,9.15
2024-05-09T01:20:42.872Z,9.08
2024-05-09T01:23:14.132Z,9.10
2024-05-09T01:25:42.655Z,9.07
2024-05-09T01:28:09.798Z,8.92
2024-05-09T01:30:37.786Z,8.85
2024-05-09T01:33:08.540Z,8.78
2024-05-09T01:35:37.373Z,8.94
2024-05-09T01:38:05.005Z,8.90
2024-05-09T01:40:37.633Z,8.79
2024-05-09T01:43:08.282Z,9.03
2024-05-09T01:45:35.836Z,9.16
2024-05-09T01:48:03.175Z,8.86
2024-05-09T01:53:01.451Z,9.05
2024-05-09T01:55:28.163Z,8.88
2024-05-09T01:57:54.749Z,8.92
2024-05-09T02:00:33.769Z,8.81
2024-05-09T02:03:08.760Z,8.48
2024-05-09T02:05:36.578Z,8.48
2024-05-09T02:08:04.159Z,8.41
2024-05-09T02:10:32.951Z,8.61
2024-05-09T02:13:01.188Z,8.71
2024-05-09T02:15:28.495Z,8.59
2024-05-09T02:17:55.408Z,8.41
2024-05-09T02:20:30.324Z,8.28
2024-05-09T02:23:05.010Z,8.15
2024-05-09T02:25:32.913Z,8.26
2024-05-09T02:27:59.712Z,8.16
2024-05-09T02:30:38.419Z,8.23
2024-05-09T02:33:09.565Z,8.27
2024-05-09T02:35:37.602Z,8.14
2024-05-09T02:38:04.984Z,8.23
2024-05-09T02:40:37.103Z,8.20
2024-05-09T02:43:07.676Z,8.13
2024-05-09T02:45:34.708Z,8.22
2024-05-09T02:48:02.127Z,8.15
2024-05-09T02:50:34.775Z,8.20
2024-05-09T02:53:08.623Z,8.32
2024-05-09T02:55:37.575Z,8.19
2024-05-09T02:58:04.732Z,8.27
2024-05-09T03:00:38.365Z,8.28
2024-05-09T03:03:10.353Z,8.34
2024-05-09T03:05:40.871Z,8.24
2024-05-09T03:08:08.251Z,8.13
2024-05-09T03:10:37.544Z,8.07
2024-05-09T03:13:15.400Z,8.20
2024-05-09T03:15:44.500Z,8.27
2024-05-09T03:18:12.726Z,8.34
2024-05-09T03:20:40.086Z,8.28
2024-05-09T03:23:09.150Z,8.26
2024-05-09T03:25:36.816Z,8.26
2024-05-09T03:28:04.320Z,8.26
2024-05-09T03:30:39.711Z,8.19
2024-05-09T03:33:12.201Z,8.18
2024-05-09T03:35:40.855Z,8.16
2024-05-09T03:38:08.673Z,8.01
2024-05-09T03:40:35.733Z,8.13
2024-05-09T03:43:02.403Z,8.16
2024-05-09T03:45:29.292Z,8.16
2024-05-09T03:47:56.544Z,8.20
2024-05-09T03:50:30.065Z,8.16
2024-05-09T03:53:01.999Z,8.24
2024-05-09T03:55:29.822Z,8.05
2024-05-09T03:57:56.953Z,8.15
2024-05-09T04:00:31.354Z,8.11
2024-05-09T04:03:06.692Z,8.07
2024-05-09T04:05:35.401Z,7.83
2024-05-09T04:08:02.411Z,7.99
2024-05-09T04:10:33.463Z,7.87
2024-05-09T04:13:03.140Z,7.98
2024-05-09T04:15:30.316Z,7.95
2024-05-09T04:17:57.852Z,7.94
2024-05-09T04:20:35.557Z,7.95
2024-05-09T04:23:06.988Z,7.79
2024-05-09T04:25:34.369Z,7.90
2024-05-09T04:28:01.264Z,8.05
2024-05-09T04:30:36.472Z,8.08
2024-05-09T04:33:07.490Z,8.11
2024-05-09T04:35:35.574Z,8.09
2024-05-09T04:38:04.668Z,8.08
2024-05-09T04:40:35.960Z,8.21
2024-05-09T04:43:14.295Z,8.08
2024-05-09T04:45:41.557Z,8.16
2024-05-09T04:48:09.288Z,8.11
2024-05-09T04:50:38.824Z,8.31
2024-05-09T04:53:08.660Z,8.41
2024-05-09T04:55:37.256Z,8.53
2024-05-09T04:58:04.924Z,8.57
2024-05-09T05:00:36.926Z,8.64
2024-05-09T05:03:10.283Z,8.72
2024-05-09T05:05:42.880Z,8.80
2024-05-09T05:08:18.631Z,8.82
2024-05-09T05:10:47.081Z,8.90
2024-05-09T05:13:22.237Z,8.95
2024-05-09T05:15:56.063Z,9.06
2024-05-09T05:18:24.259Z,9.26
2024-05-09T05:20:51.894Z,9.21
2024-05-09T05:23:20.256Z,9.27
2024-05-09T05:25:48.812Z,9.32
2024-05-09T05:28:17.427Z,9.40
2024-05-09T05:30:44.265Z,9.37
2024-05-09T05:33:13.094Z,9.56
2024-05-09T05:35:41.236Z,9.67
2024-05-09T05:38:08.688Z,9.68
2024-05-09T05:40:40.522Z,9.75
2024-05-09T05:43:09.880Z,9.81
2024-05-09T05:45:37.465Z,9.73
2024-05-09T05:48:06.379Z,9.89
2024-05-09T05:50:36.884Z,10.08
2024-05-09T05:53:07.506Z,9.99
2024-05-09T05:55:36.373Z,10.08
2024-05-09T05:58:03.610Z,10.18
2024-05-09T06:00:37.862Z,10.07
2024-05-09T06:03:10.748Z,10.28
2024-05-09T06:05:43.340Z,10.35
2024-05-09T06:08:10.858Z,10.62
2024-05-09T06:10:40.170Z,10.76
2024-05-09T06:13:12.568Z,10.78
2024-05-09T06:15:40.379Z,10.83
2024-05-09T06:18:09.078Z,10.94
2024-05-09T06:20:38.106Z,10.99
2024-05-09T06:23:06.939Z,10.90
2024-05-09T06:25:34.518Z,10.94
2024-05-09T06:28:01.654Z,10.98
2024-05-09T06:30:37.117Z,10.89
2024-05-09T06:33:09.379Z,10.96
2024-05-09T06:35:37.250Z,11.01
2024-05-09T06:38:04.661Z,11.06
2024-05-09T06:40:37.787Z,11.14
2024-05-09T06:43:14.463Z,11.10
2024-05-09T06:45:41.799Z,10.97
2024-05-09T06:48:09.236Z,10.98
2024-05-09T06:50:38.435Z,11.26
2024-05-09T06:53:07.475Z,11.65
2024-05-09T06:55:34.358Z,11.83
2024-05-09T06:58:01.092Z,11.73
2024-05-09T07:00:35.469Z,11.71
2024-05-09T07:03:16.402Z,11.62
2024-05-09T07:05:47.249Z,11.80
2024-05-09T07:08:15.381Z,11.65
2024-05-09T07:10:42.830Z,11.75
2024-05-09T07:13:10.561Z,11.73
2024-05-09T07:15:37.845Z,11.47
2024-05-09T07:18:18.211Z,11.70
2024-05-09T07:20:48.045Z,12.17
2024-05-09T07:23:16.435Z,12.03
2024-05-09T07:25:43.660Z,12.45
2024-05-09T07:28:13.476Z,12.69
2024-05-09T07:30:41.425Z,12.62
2024-05-09T07:33:08.519Z,12.60
2024-05-09T07:35:35.459Z,12.63
2024-05-09T07:38:02.268Z,12.55
2024-05-09T07:40:35.571Z,12.74
2024-05-09T07:43:04.698Z,13.10
2024-05-09T07:45:48.125Z,12.83
2024-05-09T07:53:39.183Z,12.74
2024-05-09T07:56:09.995Z,12.95
2024-05-09T07:58:37.983Z,13.05
2024-05-09T08:01:05.099Z,13.11
2024-05-09T08:03:32.460Z,12.86
2024-05-09T08:05:59.381Z,12.76
2024-05-09T08:08:26.301Z,12.63
2024-05-09T08:10:53.384Z,12.67
2024-05-09T08:13:20.356Z,12.70
2024-05-09T08:15:47.250Z,12.74
2024-05-09T08:18:13.912Z,12.88
2024-05-09T08:20:41.888Z,12.67
2024-05-09T08:23:09.128Z,12.83
2024-05-09T08:25:36.673Z,13.04
2024-05-09T08:28:04.816Z,13.26
2024-05-09T08:30:36.753Z,13.14
2024-05-09T08:33:06.766Z,13.05
2024-05-09T08:35:34.855Z,13.24
2024-05-09T08:38:02.988Z,13.26
2024-05-09T08:40:35.647Z,13.34
2024-05-09T08:43:11.049Z,13.28
2024-05-09T08:45:43.136Z,13.40
2024-05-09T08:48:12.896Z,13.55
2024-05-09T08:50:41.207Z,13.50
2024-05-09T08:53:08.863Z,13.67
2024-05-09T08:55:40.173Z,13.82
2024-05-09T08:58:14.276Z,13.92
2024-05-09T09:00:43.015Z,13.88
2024-05-09T09:03:14.715Z,13.95
2024-05-09T09:05:51.115Z,14.01
2024-05-09T09:08:18.577Z,14.13
2024-05-09T09:10:47.578Z,14.17
2024-05-09T09:13:15.493Z,14.41
2024-05-09T09:15:49.941Z,14.55
2024-05-09T09:18:18.298Z,14.64
2024-05-09T09:20:45.618Z,14.68
2024-05-09T09:23:12.525Z,14.89
2024-05-09T09:25:40.577Z,15.17
2024-05-09T09:28:08.477Z,15.37
2024-05-09T09:30:45.935Z,15.52
2024-05-09T09:33:13.427Z,15.53
2024-05-09T09:35:40.648Z,15.62
2024-05-09T09:38:08.163Z,15.67
2024-05-09T09:40:40.983Z,15.97
2024-05-09T09:43:18.241Z,15.94
2024-05-09T09:45:47.973Z,16.43
2024-05-09T09:48:16.275Z,16.46
2024-05-09T09:50:43.375Z,16.43
2024-05-09T09:53:12.614Z,16.60
2024-05-09T09:55:40.162Z,16.59
2024-05-09T09:58:09.555Z,16.58
2024-05-09T10:00:39.300Z,16.75
2024-05-09T10:03:06.749Z,17.11
2024-05-09T10:05:34.450Z,17.31
2024-05-09T10:08:06.524Z,17.62
2024-05-09T10:10:35.650Z,17.69
2024-05-09T10:13:04.147Z,18.14
2024-05-09T10:15:42.861Z,18.70
2024-05-09T10:18:10.003Z,20.16
2024-05-09T10:20:44.290Z,22.55
2024-05-09T10:23:28.287Z,25.27
2024-05-09T10:26:03.777Z,25.86
2024-05-09T10:28:32.795Z,25.98
2024-05-09T10:31:10.530Z,26.51
2024-05-09T10:33:52.472Z,27.07
2024-05-09T10:36:26.583Z,27.45
2024-05-09T10:38:54.709Z,27.24
2024-05-09T10:41:23.383Z,28.32
2024-05-09T10:43:51.172Z,26.67
2024-05-09T10:46:21.729Z,26.90
2024-05-09T10:48:48.887Z,28.25
2024-05-09T10:51:19.352Z,27.99
2024-05-09T10:53:48.024Z,28.57
2024-05-09T10:56:15.077Z,28.45
2024-05-09T10:58:41.953Z,29.64
2024-05-09T11:01:10.380Z,29.14
2024-05-09T11:03:38.259Z,26.86
2024-05-09T11:06:06.526Z,26.70
2024-05-09T11:08:34.767Z,24.50
2024-05-09T11:11:06.746Z,22.31
2024-05-09T11:13:36.060Z,23.51
2024-05-09T11:16:03.865Z,23.14
2024-05-09T11:18:35.486Z,23.78
2024-05-09T11:21:12.595Z,24.21
2024-05-09T11:23:40.202Z,23.14
2024-05-09T11:26:07.428Z,23.12
2024-05-09T11:28:34.154Z,23.37
2024-05-09T11:31:10.276Z,23.50
2024-05-09T11:33:38.737Z,23.68
2024-05-09T11:36:06.702Z,22.51
2024-05-09T11:38:33.816Z,22.67
2024-05-09T11:41:02.064Z,23.48
2024-05-09T11:43:28.871Z,23.47
2024-05-09T11:45:57.596Z,23.14
2024-05-09T11:48:25.783Z,22.64
2024-05-09T11:50:54.337Z,21.91
2024-05-09T11:53:20.983Z,20.69
2024-05-09T11:55:49.667Z,20.22
2024-05-09T11:58:18.039Z,20.61
2024-05-09T12:00:45.839Z,20.31
2024-05-09T12:03:13.228Z,21.90
2024-05-09T12:05:40.408Z,22.38
2024-05-09T12:08:07.590Z,23.13
2024-05-09T12:10:36.198Z,23.44
2024-05-09T12:13:06.181Z,22.39
2024-05-09T12:15:37.447Z,22.96
2024-05-09T12:18:06.254Z,22.88
2024-05-09T12:20:37.665Z,23.48
2024-05-09T12:23:08.399Z,23.38
2024-05-09T12:25:36.734Z,23.78
2024-05-09T12:28:05.926Z,23.95
2024-05-09T12:30:37.497Z,23.03
2024-05-09T12:33:12.537Z,23.00
2024-05-09T12:35:43.232Z,22.43
2024-05-09T12:38:12.182Z,23.17
2024-05-09T12:40:39.724Z,24.01
2024-05-09T12:43:09.588Z,24.18
2024-05-09T12:45:37.912Z,24.07
2024-05-09T12:48:08.386Z,24.21
2024-05-09T12:50:35.820Z,24.21
2024-05-09T12:53:04.218Z,23.69
2024-05-09T12:55:40.347Z,22.89
2024-05-09T12:58:16.388Z,22.14
2024-05-09T13:00:44.243Z,21.93
2024-05-09T13:03:11.449Z,21.62
2024-05-09T13:05:41.361Z,21.26
2024-05-09T13:08:08.961Z,21.14
2024-05-09T13:10:36.870Z,20.93
2024-05-09T13:13:03.854Z,21.13
2024-05-09T13:15:31.629Z,21.52
2024-05-09T13:18:02.636Z,22.07
2024-05-09T13:20:34.300Z,22.92
2024-05-09T13:23:03.937Z,22.84
2024-05-09T13:25:30.884Z,23.72
2024-05-09T13:27:57.860Z,23.92
2024-05-09T13:30:33.632Z,23.18
2024-05-09T13:33:07.021Z,22.72
2024-05-09T13:35:35.789Z,22.81
2024-05-09T13:38:03.698Z,22.02
2024-05-09T13:40:34.462Z,21.21
2024-05-09T13:43:06.061Z,20.87
2024-05-09T13:45:33.618Z,20.73
2024-05-09T13:48:02.581Z,20.92
2024-05-09T13:50:35.736Z,20.97
2024-05-09T13:53:06.449Z,20.84
2024-05-09T13:55:34.905Z,20.86
2024-05-09T13:58:02.034Z,21.09
2024-05-09T14:00:41.825Z,20.94
2024-05-09T14:03:14.592Z,21.93
2024-05-09T14:05:41.936Z,21.57
2024-05-09T14:08:09.690Z,21.15
2024-05-09T14:10:43.209Z,20.88
2024-05-09T14:13:12.369Z,21.02
2024-05-09T14:15:39.493Z,22.61
2024-05-09T14:18:10.346Z,22.74
2024-05-09T14:20:39.284Z,22.04
2024-05-09T14:23:06.473Z,22.84
2024-05-09T14:25:36.593Z,23.55
2024-05-09T14:28:06.383Z,23.47
2024-05-09T14:30:37.426Z,23.22
2024-05-09T14:33:06.769Z,23.95
2024-05-09T14:35:34.934Z,24.06
2024-05-09T14:38:03.102Z,23.28
2024-05-09T14:40:40.336Z,23.43
2024-05-09T14:43:14.743Z,23.91
2024-05-09T14:45:43.389Z,23.80
2024-05-09T14:48:11.839Z,23.79
2024-05-09T14:50:40.429Z,23.94
2024-05-09T14:53:09.454Z,24.28
2024-05-09T14:55:37.825Z,23.59
2024-05-09T14:58:12.574Z,23.11
2024-05-09T15:00:46.164Z,22.34
2024-05-09T15:03:21.374Z,22.82
2024-05-09T15:05:50.530Z,22.93
2024-05-09T15:08:19.483Z,23.15
2024-05-09T15:10:46.700Z,23.36
2024-05-09T15:13:16.422Z,23.05
2024-05-09T15:15:44.315Z,23.41
2024-05-09T15:18:11.745Z,22.77
2024-05-09T15:23:07.536Z,23.28
2024-05-09T15:25:36.303Z,23.26
2024-05-09T15:28:07.363Z,23.32
2024-05-09T15:30:35.238Z,23.09
2024-05-09T15:33:06.703Z,23.38
2024-05-09T15:35:35.362Z,23.42
2024-05-09T15:38:03.245Z,23.04
2024-05-09T15:40:37.658Z,23.21
2024-05-09T15:43:07.922Z,22.96
2024-05-09T15:45:35.587Z,22.14
2024-05-09T15:48:03.472Z,22.33
2024-05-09T15:50:37.440Z,22.21
2024-05-09T15:53:09.577Z,22.24
2024-05-09T15:55:37.101Z,22.23
2024-05-09T15:58:05.377Z,22.44
2024-05-09T16:00:38.685Z,22.38
2024-05-09T16:03:10.975Z,22.37
2024-05-09T16:05:38.717Z,22.43
2024-05-09T16:08:07.232Z,21.81
2024-05-09T16:10:35.121Z,22.08
2024-05-09T16:13:03.873Z,21.98
2024-05-09T16:15:31.564Z,21.85
2024-05-09T16:17:59.273Z,21.80
2024-05-09T16:20:34.714Z,21.75
2024-05-09T16:23:07.563Z,21.52
2024-05-09T16:25:34.653Z,21.75
2024-05-09T16:28:05.768Z,21.77
2024-05-09T16:30:36.030Z,21.51
2024-05-09T16:33:05.115Z,21.63
2024-05-09T16:35:32.917Z,21.28
2024-05-09T16:38:02.170Z,21.15
2024-05-09T16:40:36.596Z,20.68
2024-05-09T16:43:07.180Z,20.56
2024-05-09T16:45:34.296Z,20.69
2024-05-09T16:48:01.640Z,20.76
2024-05-09T16:50:33.001Z,20.77
2024-05-09T16:53:02.671Z,20.88
2024-05-09T16:55:29.635Z,21.03
2024-05-09T16:57:57.374Z,20.98
2024-05-09T17:00:35.940Z,20.95
2024-05-09T17:03:09.622Z,20.75
2024-05-09T17:05:37.112Z,20.52
2024-05-09T17:08:04.540Z,20.83
2024-05-09T17:10:34.164Z,20.61
2024-05-09T17:13:04.038Z,20.45
2024-05-09T17:15:32.315Z,20.46
2024-05-09T17:18:01.287Z,20.39
2024-05-09T17:20:33.240Z,20.25
2024-05-09T17:23:03.720Z,20.29
2024-05-09T17:25:32.678Z,20.27
2024-05-09T17:28:06.392Z,20.15
2024-05-09T17:30:36.604Z,20.08
2024-05-09T17:33:06.491Z,20.00
2024-05-09T17:35:34.442Z,19.90
2024-05-09T17:38:01.716Z,19.84
2024-05-09T17:40:34.949Z,19.73
2024-05-09T17:43:05.044Z,19.68
2024-05-09T17:45:32.780Z,19.59
2024-05-09T17:48:00.148Z,19.44
2024-05-09T17:50:34.752Z,19.44
2024-05-09T17:53:04.045Z,19.35
2024-05-09T17:55:30.760Z,19.35
2024-05-09T17:57:57.706Z,19.19
2024-05-09T18:00:36.219Z,19.01
2024-05-09T18:03:07.404Z,18.74
2024-05-09T18:05:38.052Z,18.65
2024-05-09T18:08:08.671Z,18.33
2024-05-09T18:10:38.641Z,18.22
2024-05-09T18:13:10.933Z,18.08
2024-05-09T18:15:39.027Z,17.91
2024-05-09T18:18:07.559Z,17.88
2024-05-09T18:20:42.163Z,17.80
2024-05-09T18:23:17.191Z,17.96
2024-05-09T18:25:45.285Z,17.65
2024-05-09T18:28:12.180Z,17.63
2024-05-09T18:30:40.381Z,17.57
2024-05-09T18:33:10.872Z,17.50
2024-05-09T18:35:37.985Z,17.28
2024-05-09T18:38:05.485Z,17.23
2024-05-09T18:40:36.135Z,17.07
2024-05-09T18:43:07.339Z,16.97
2024-05-09T18:45:36.578Z,16.93
2024-05-09T18:48:06.040Z,16.77
2024-05-09T18:50:37.573Z,17.02
2024-05-09T18:53:06.958Z,16.65
2024-05-09T18:55:33.990Z,16.56
2024-05-09T18:58:01.046Z,16.53
2024-05-09T19:00:34.528Z,16.49
2024-05-09T19:03:08.097Z,16.34
2024-05-09T19:05:36.409Z,16.19
2024-05-09T19:08:03.664Z,16.15
2024-05-09T19:10:34.408Z,16.10
2024-05-09T19:13:08.004Z,15.88
2024-05-09T19:15:38.608Z,15.97
2024-05-09T19:18:07.178Z,15.89
2024-05-09T19:20:35.990Z,15.73
2024-05-09T19:23:04.829Z,15.66
2024-05-09T19:25:32.752Z,15.54
2024-05-09T19:28:00.894Z,15.83
2024-05-09T19:30:37.659Z,15.62
2024-05-09T19:33:08.568Z,15.45
2024-05-09T19:35:35.776Z,15.33
2024-05-09T19:38:02.799Z,15.35
2024-05-09T19:40:32.547Z,15.16
2024-05-09T19:43:02.473Z,15.02
2024-05-09T19:45:30.149Z,14.98
2024-05-09T19:47:57.261Z,14.88
2024-05-09T19:50:32.431Z,14.81
2024-05-09T19:53:07.528Z,14.79
2024-05-09T19:55:34.783Z,14.72
2024-05-09T19:58:06.872Z,14.58
2024-05-09T20:00:39.345Z,14.53
2024-05-09T20:03:09.278Z,14.47
2024-05-09T20:05:37.400Z,14.39
2024-05-09T20:08:05.182Z,14.41
2024-05-09T20:10:34.191Z,14.28
2024-05-09T20:13:03.806Z,14.32
2024-05-09T20:15:31.944Z,14.19
2024-05-09T20:17:58.727Z,14.17
2024-05-09T20:20:33.755Z,14.23
2024-05-09T20:23:06.302Z,14.08
2024-05-09T20:25:33.159Z,13.96
2024-05-09T20:28:01.373Z,13.90
2024-05-09T20:30:32.691Z,13.92
2024-05-09T20:33:07.025Z,13.83
2024-05-09T20:35:35.351Z,13.85
2024-05-09T20:38:03.220Z,13.82
2024-05-09T20:40:34.980Z,13.83
2024-05-09T20:43:05.988Z,13.78
2024-05-09T20:45:33.696Z,13.73
2024-05-09T20:48:00.766Z,13.65
2024-05-09T20:50:36.609Z,13.63
2024-05-09T20:53:13.057Z,13.60
2024-05-09T20:55:41.174Z,13.56
2024-05-09T20:58:08.850Z,13.44
2024-05-09T21:00:40.234Z,13.59
2024-05-09T21:03:11.407Z,13.55
2024-05-09T21:05:39.084Z,13.47
2024-05-09T21:08:06.822Z,13.42
2024-05-09T21:10:35.134Z,13.41
2024-05-09T21:13:03.279Z,13.45
2024-05-09T21:15:31.069Z,13.17
2024-05-09T21:17:57.854Z,13.07
2024-05-09T21:20:30.977Z,13.01
2024-05-09T21:22:59.359Z,12.85
2024-05-09T21:25:26.270Z,12.70
2024-05-09T21:27:53.173Z,12.70
2024-05-09T21:30:31.631Z,12.44
2024-05-09T21:33:08.313Z,12.53
2024-05-09T21:35:35.629Z,12.47
2024-05-09T21:38:02.460Z,12.48
2024-05-09T21:40:34.300Z,12.58
2024-05-09T21:43:03.298Z,12.52
2024-05-09T21:45:30.208Z,12.55
2024-05-09T21:47:57.494Z,12.60
2024-05-09T21:50:32.222Z,12.49
2024-05-09T21:53:06.140Z,12.26
2024-05-09T21:55:33.022Z,12.20
2024-05-09T21:58:00.307Z,12.22
2024-05-09T22:00:34.710Z,12.30
2024-05-09T22:03:04.874Z,12.28
2024-05-09T22:05:31.994Z,12.42
2024-05-09T22:07:59.220Z,12.31
2024-05-09T22:10:31.159Z,12.15
2024-05-09T22:13:01.859Z,12.22
2024-05-09T22:15:28.966Z,12.08
2024-05-09T22:17:57.388Z,11.93
2024-05-09T22:20:34.128Z,11.80
2024-05-09T22:23:04.604Z,11.71
2024-05-09T22:25:32.316Z,11.83
2024-05-09T22:28:01.233Z,11.77
2024-05-09T22:30:35.656Z,11.78
2024-05-09T22:33:08.031Z,11.85
2024-05-09T22:35:35.223Z,11.79
2024-05-09T22:38:04.799Z,11.71
2024-05-09T22:40:42.147Z,11.71
2024-05-09T22:43:18.413Z,11.80
2024-05-09T22:45:46.739Z,11.59
2024-05-09T22:48:13.679Z,11.52
2024-05-09T22:50:41.315Z,11.37
2024-05-09T22:53:08.032Z,11.39
2024-05-09T22:55:34.702Z,11.41
2024-05-09T22:58:01.636Z,11.38
2024-05-09T23:00:31.810Z,11.45
2024-05-09T23:03:00.956Z,11.45
2024-05-09T23:05:28.321Z,11.43
2024-05-09T23:07:55.976Z,11.38
2024-05-09T23:10:30.897Z,11.19
2024-05-09T23:13:01.940Z,11.17
2024-05-09T23:15:28.838Z,11.06
2024-05-09T23:17:55.624Z,11.10
2024-05-09T23:20:33.393Z,10.94
2024-05-09T23:23:05.537Z,10.92
2024-05-09T23:25:32.462Z,10.90
2024-05-09T23:27:59.834Z,10.98
2024-05-09T23:30:37.028Z,10.97
2024-05-09T23:33:07.422Z,10.82
2024-05-09T23:35:34.418Z,10.75
2024-05-09T23:38:01.342Z,10.76
2024-05-09T23:40:37.608Z,10.70
2024-05-09T23:43:08.197Z,10.68
2024-05-09T23:45:35.312Z,10.63
2024-05-09T23:48:02.632Z,10.67
2024-05-09T23:50:35.078Z,10.56
2024-05-09T23:53:06.682Z,10.53
2024-05-09T23:55:34.365Z,10.23
2024-05-09T23:58:01.147Z,10.27
